sensor_id;sensor_type;location;lat;lon;timestamp;P1;durP1;ratioP1;P2;durP2;ratioP2
40959;SDS011;27842;52.272;8.052;2023-10-09T00:00:11;10.18;;;3.65;;
40959;SDS011;27842;52.272;8.052;2023-10-09T00:02:59;8.38;;;2.67;;
40959;SDS011;27842;52.272;8.052;2023-10-09T00:05:26;10.65;;;3.17;;
40959;SDS011;27842;52.272;8.052;2023-10-09T00:08:14;11.57;;;3.20;;
40959;SDS011;27842;52.272;8.052;2023-10-09T00:10:50;11.32;;;3.00;;
40959;SDS011;27842;52.272;8.052;2023-10-09T00:13:23;11.35;;;3.00;;
40959;SDS011;27842;52.272;8.052;2023-10-09T00:15:57;10.27;;;2.80;;
40959;SDS011;27842;52.272;8.052;2023-10-09T00:18:33;13.85;;;2.97;;
40959;SDS011;27842;52.272;8.052;2023-10-09T00:21:00;15.70;;;3.60;;
40959;SDS011;27842;52.272;8.052;2023-10-09T00:23:27;13.55;;;2.85;;
40959;SDS011;27842;52.272;8.052;2023-10-09T00:25:53;8.70;;;2.67;;
40959;SDS011;27842;52.272;8.052;2023-10-09T00:28:38;9.25;;;3.20;;
40959;SDS011;27842;52.272;8.052;2023-10-09T00:31:09;11.93;;;3.70;;
40959;SDS011;27842;52.272;8.052;2023-10-09T00:33:40;11.65;;;3.42;;
40959;SDS011;27842;52.272;8.052;2023-10-09T00:36:07;13.75;;;3.75;;
40959;SDS011;27842;52.272;8.052;2023-10-09T00:38:39;10.80;;;3.10;;
40959;SDS011;27842;52.272;8.052;2023-10-09T00:41:09;16.08;;;4.07;;
40959;SDS011;27842;52.272;8.052;2023-10-09T00:43:36;15.82;;;4.40;;
40959;SDS011;27842;52.272;8.052;2023-10-09T00:46:04;16.73;;;4.40;;
40959;SDS011;27842;52.272;8.052;2023-10-09T00:48:47;14.65;;;4.80;;
40959;SDS011;27842;52.272;8.052;2023-10-09T00:51:17;18.88;;;6.25;;
40959;SDS011;27842;52.272;8.052;2023-10-09T00:53:50;18.00;;;5.57;;
40959;SDS011;27842;52.272;8.052;2023-10-09T00:56:19;16.35;;;6.30;;
40959;SDS011;27842;52.272;8.052;2023-10-09T00:58:55;17.15;;;6.22;;
40959;SDS011;27842;52.272;8.052;2023-10-09T01:01:31;18.60;;;6.15;;
40959;SDS011;27842;52.272;8.052;2023-10-09T01:04:03;18.35;;;6.97;;
40959;SDS011;27842;52.272;8.052;2023-10-09T01:06:38;21.60;;;7.32;;
40959;SDS011;27842;52.272;8.052;2023-10-09T01:09:15;21.40;;;7.10;;
40959;SDS011;27842;52.272;8.052;2023-10-09T01:11:48;23.92;;;8.32;;
40959;SDS011;27842;52.272;8.052;2023-10-09T01:14:14;21.33;;;7.88;;
40959;SDS011;27842;52.272;8.052;2023-10-09T01:16:46;20.33;;;7.35;;
40959;SDS011;27842;52.272;8.052;2023-10-09T01:19:12;22.73;;;7.97;;
40959;SDS011;27842;52.272;8.052;2023-10-09T01:21:44;23.08;;;8.27;;
40959;SDS011;27842;52.272;8.052;2023-10-09T01:24:10;22.90;;;9.15;;
40959;SDS011;27842;52.272;8.052;2023-10-09T01:26:39;22.35;;;9.15;;
40959;SDS011;27842;52.272;8.052;2023-10-09T01:29:12;22.33;;;9.50;;
40959;SDS011;27842;52.272;8.052;2023-10-09T01:31:45;23.90;;;10.43;;
40959;SDS011;27842;52.272;8.052;2023-10-09T01:34:25;24.33;;;9.52;;
40959;SDS011;27842;52.272;8.052;2023-10-09T01:37:18;22.60;;;10.23;;
40959;SDS011;27842;52.272;8.052;2023-10-09T01:39:48;25.00;;;11.05;;
40959;SDS011;27842;52.272;8.052;2023-10-09T01:42:15;26.05;;;10.98;;
40959;SDS011;27842;52.272;8.052;2023-10-09T01:45:02;26.35;;;11.85;;
40959;SDS011;27842;52.272;8.052;2023-10-09T01:47:51;25.73;;;11.98;;
40959;SDS011;27842;52.272;8.052;2023-10-09T01:50:18;27.58;;;11.63;;
40959;SDS011;27842;52.272;8.052;2023-10-09T01:52:49;25.60;;;11.77;;
40959;SDS011;27842;52.272;8.052;2023-10-09T01:55:18;27.17;;;12.18;;
40959;SDS011;27842;52.272;8.052;2023-10-09T01:58:13;26.63;;;11.95;;
40959;SDS011;27842;52.272;8.052;2023-10-09T02:00:52;26.90;;;11.90;;
40959;SDS011;27842;52.272;8.052;2023-10-09T02:03:21;29.52;;;12.35;;
40959;SDS011;27842;52.272;8.052;2023-10-09T02:05:51;26.70;;;12.38;;
40959;SDS011;27842;52.272;8.052;2023-10-09T02:08:18;23.87;;;12.53;;
40959;SDS011;27842;52.272;8.052;2023-10-09T02:10:51;27.70;;;11.48;;
40959;SDS011;27842;52.272;8.052;2023-10-09T02:15:55;25.73;;;12.18;;
40959;SDS011;27842;52.272;8.052;2023-10-09T02:18:23;27.08;;;13.52;;
40959;SDS011;27842;52.272;8.052;2023-10-09T02:23:31;27.95;;;12.65;;
40959;SDS011;27842;52.272;8.052;2023-10-09T02:26:12;26.60;;;12.65;;
40959;SDS011;27842;52.272;8.052;2023-10-09T02:28:49;28.02;;;12.90;;
40959;SDS011;27842;52.272;8.052;2023-10-09T02:31:23;27.73;;;13.20;;
40959;SDS011;27842;52.272;8.052;2023-10-09T02:33:51;27.00;;;12.80;;
40959;SDS011;27842;52.272;8.052;2023-10-09T02:36:23;27.88;;;13.57;;
40959;SDS011;27842;52.272;8.052;2023-10-09T02:38:49;25.15;;;12.32;;
40959;SDS011;27842;52.272;8.052;2023-10-09T02:41:18;29.10;;;13.18;;
40959;SDS011;27842;52.272;8.052;2023-10-09T02:43:45;24.58;;;11.75;;
40959;SDS011;27842;52.272;8.052;2023-10-09T02:46:16;28.83;;;12.07;;
40959;SDS011;27842;52.272;8.052;2023-10-09T02:48:43;26.48;;;12.93;;
40959;SDS011;27842;52.272;8.052;2023-10-09T02:53:50;26.73;;;11.65;;
40959;SDS011;27842;52.272;8.052;2023-10-09T02:56:21;24.23;;;11.98;;
40959;SDS011;27842;52.272;8.052;2023-10-09T02:59:01;24.73;;;11.52;;
40959;SDS011;27842;52.272;8.052;2023-10-09T03:01:31;26.83;;;12.70;;
40959;SDS011;27842;52.272;8.052;2023-10-09T03:03:56;24.73;;;11.85;;
40959;SDS011;27842;52.272;8.052;2023-10-09T03:06:24;25.85;;;12.60;;
40959;SDS011;27842;52.272;8.052;2023-10-09T03:08:55;25.42;;;12.10;;
40959;SDS011;27842;52.272;8.052;2023-10-09T03:11:24;25.75;;;12.50;;
40959;SDS011;27842;52.272;8.052;2023-10-09T03:13:52;26.92;;;12.10;;
40959;SDS011;27842;52.272;8.052;2023-10-09T03:16:18;27.00;;;12.50;;
40959;SDS011;27842;52.272;8.052;2023-10-09T03:18:47;27.25;;;12.65;;
40959;SDS011;27842;52.272;8.052;2023-10-09T03:21:17;26.70;;;12.75;;
40959;SDS011;27842;52.272;8.052;2023-10-09T03:23:46;26.85;;;12.35;;
40959;SDS011;27842;52.272;8.052;2023-10-09T03:26:16;25.55;;;12.52;;
40959;SDS011;27842;52.272;8.052;2023-10-09T03:28:47;29.60;;;13.15;;
40959;SDS011;27842;52.272;8.052;2023-10-09T03:31:13;25.48;;;13.70;;
40959;SDS011;27842;52.272;8.052;2023-10-09T03:33:39;26.45;;;12.07;;
40959;SDS011;27842;52.272;8.052;2023-10-09T03:36:06;27.33;;;13.70;;
40959;SDS011;27842;52.272;8.052;2023-10-09T03:38:37;27.20;;;13.40;;
40959;SDS011;27842;52.272;8.052;2023-10-09T03:41:04;25.77;;;13.55;;
40959;SDS011;27842;52.272;8.052;2023-10-09T03:43:34;25.42;;;12.75;;
40959;SDS011;27842;52.272;8.052;2023-10-09T03:46:05;27.73;;;13.02;;
40959;SDS011;27842;52.272;8.052;2023-10-09T03:48:45;25.17;;;13.40;;
40959;SDS011;27842;52.272;8.052;2023-10-09T03:51:14;32.42;;;13.65;;
40959;SDS011;27842;52.272;8.052;2023-10-09T03:53:50;27.40;;;12.18;;
40959;SDS011;27842;52.272;8.052;2023-10-09T03:56:18;29.02;;;13.68;;
40959;SDS011;27842;52.272;8.052;2023-10-09T03:58:46;31.10;;;14.07;;
40959;SDS011;27842;52.272;8.052;2023-10-09T04:01:23;26.73;;;13.75;;
40959;SDS011;27842;52.272;8.052;2023-10-09T04:03:55;26.15;;;13.93;;
40959;SDS011;27842;52.272;8.052;2023-10-09T04:06:28;25.40;;;13.10;;
40959;SDS011;27842;52.272;8.052;2023-10-09T04:09:02;26.70;;;14.35;;
40959;SDS011;27842;52.272;8.052;2023-10-09T04:11:43;29.60;;;13.80;;
40959;SDS011;27842;52.272;8.052;2023-10-09T04:14:15;30.05;;;14.60;;
40959;SDS011;27842;52.272;8.052;2023-10-09T04:16:51;28.63;;;13.98;;
40959;SDS011;27842;52.272;8.052;2023-10-09T04:19:17;25.45;;;13.73;;
40959;SDS011;27842;52.272;8.052;2023-10-09T04:21:47;29.98;;;14.65;;
40959;SDS011;27842;52.272;8.052;2023-10-09T04:24:13;27.90;;;13.98;;
40959;SDS011;27842;52.272;8.052;2023-10-09T04:26:39;27.90;;;14.13;;
40959;SDS011;27842;52.272;8.052;2023-10-09T04:29:12;27.80;;;14.85;;
40959;SDS011;27842;52.272;8.052;2023-10-09T04:32:03;31.65;;;14.65;;
40959;SDS011;27842;52.272;8.052;2023-10-09T04:37:03;28.80;;;14.73;;
40959;SDS011;27842;52.272;8.052;2023-10-09T04:39:47;27.70;;;14.00;;
40959;SDS011;27842;52.272;8.052;2023-10-09T04:42:14;29.70;;;15.60;;
40959;SDS011;27842;52.272;8.052;2023-10-09T04:44:45;32.28;;;15.18;;
40959;SDS011;27842;52.272;8.052;2023-10-09T04:47:30;28.02;;;15.07;;
40959;SDS011;27842;52.272;8.052;2023-10-09T04:50:15;31.15;;;15.68;;
40959;SDS011;27842;52.272;8.052;2023-10-09T04:52:44;32.53;;;15.05;;
40959;SDS011;27842;52.272;8.052;2023-10-09T04:55:10;32.38;;;14.55;;
40959;SDS011;27842;52.272;8.052;2023-10-09T04:57:45;31.92;;;15.15;;
40959;SDS011;27842;52.272;8.052;2023-10-09T05:00:43;30.27;;;14.85;;
40959;SDS011;27842;52.272;8.052;2023-10-09T05:07:28;26.85;;;14.60;;
40959;SDS011;27842;52.272;8.052;2023-10-09T05:14:43;28.30;;;14.05;;
40959;SDS011;27842;52.272;8.052;2023-10-09T05:17:29;28.10;;;14.43;;
40959;SDS011;27842;52.272;8.052;2023-10-09T05:20:37;30.48;;;14.32;;
40959;SDS011;27842;52.272;8.052;2023-10-09T05:23:20;27.70;;;14.85;;
40959;SDS011;27842;52.272;8.052;2023-10-09T05:25:50;30.00;;;14.15;;
40959;SDS011;27842;52.272;8.052;2023-10-09T05:28:19;30.10;;;13.95;;
40959;SDS011;27842;52.272;8.052;2023-10-09T05:30:55;31.15;;;15.25;;
40959;SDS011;27842;52.272;8.052;2023-10-09T05:33:36;29.88;;;14.82;;
40959;SDS011;27842;52.272;8.052;2023-10-09T05:38:40;27.27;;;14.77;;
40959;SDS011;27842;52.272;8.052;2023-10-09T05:41:11;27.55;;;15.05;;
40959;SDS011;27842;52.272;8.052;2023-10-09T05:44:00;28.88;;;14.90;;
40959;SDS011;27842;52.272;8.052;2023-10-09T05:46:44;30.05;;;16.13;;
40959;SDS011;27842;52.272;8.052;2023-10-09T05:49:33;29.88;;;15.70;;
40959;SDS011;27842;52.272;8.052;2023-10-09T05:52:11;33.47;;;16.15;;
40959;SDS011;27842;52.272;8.052;2023-10-09T05:54:56;30.77;;;15.65;;
40959;SDS011;27842;52.272;8.052;2023-10-09T05:57:40;32.97;;;18.10;;
40959;SDS011;27842;52.272;8.052;2023-10-09T06:00:21;30.23;;;16.52;;
40959;SDS011;27842;52.272;8.052;2023-10-09T06:03:08;29.02;;;15.82;;
40959;SDS011;27842;52.272;8.052;2023-10-09T06:05:52;27.77;;;16.13;;
40959;SDS011;27842;52.272;8.052;2023-10-09T06:08:25;31.00;;;16.90;;
40959;SDS011;27842;52.272;8.052;2023-10-09T06:10:55;31.58;;;17.50;;
40959;SDS011;27842;52.272;8.052;2023-10-09T06:13:50;32.67;;;16.40;;
40959;SDS011;27842;52.272;8.052;2023-10-09T06:16:27;31.80;;;16.73;;
40959;SDS011;27842;52.272;8.052;2023-10-09T06:19:25;29.27;;;15.70;;
40959;SDS011;27842;52.272;8.052;2023-10-09T06:21:52;33.90;;;17.55;;
40959;SDS011;27842;52.272;8.052;2023-10-09T06:24:39;32.95;;;17.08;;
40959;SDS011;27842;52.272;8.052;2023-10-09T06:27:18;38.10;;;18.20;;
40959;SDS011;27842;52.272;8.052;2023-10-09T06:29:56;34.17;;;17.83;;
40959;SDS011;27842;52.272;8.052;2023-10-09T06:32:41;32.30;;;17.23;;
40959;SDS011;27842;52.272;8.052;2023-10-09T06:35:22;35.20;;;17.73;;
40959;SDS011;27842;52.272;8.052;2023-10-09T06:37:58;36.00;;;18.05;;
40959;SDS011;27842;52.272;8.052;2023-10-09T06:40:34;34.03;;;18.52;;
40959;SDS011;27842;52.272;8.052;2023-10-09T06:43:22;32.28;;;17.80;;
40959;SDS011;27842;52.272;8.052;2023-10-09T06:45:49;33.72;;;17.80;;
40959;SDS011;27842;52.272;8.052;2023-10-09T06:48:38;31.13;;;17.67;;
40959;SDS011;27842;52.272;8.052;2023-10-09T06:53:52;33.60;;;18.13;;
40959;SDS011;27842;52.272;8.052;2023-10-09T06:56:21;35.20;;;19.02;;
40959;SDS011;27842;52.272;8.052;2023-10-09T06:58:56;35.83;;;19.47;;
40959;SDS011;27842;52.272;8.052;2023-10-09T07:01:26;34.83;;;17.98;;
40959;SDS011;27842;52.272;8.052;2023-10-09T07:03:52;32.63;;;18.38;;
40959;SDS011;27842;52.272;8.052;2023-10-09T07:06:40;37.13;;;19.70;;
40959;SDS011;27842;52.272;8.052;2023-10-09T07:09:05;33.35;;;18.50;;
40959;SDS011;27842;52.272;8.052;2023-10-09T07:11:31;35.40;;;18.70;;
40959;SDS011;27842;52.272;8.052;2023-10-09T07:16:32;37.25;;;19.17;;
40959;SDS011;27842;52.272;8.052;2023-10-09T07:19:04;34.70;;;19.10;;
40959;SDS011;27842;52.272;8.052;2023-10-09T07:21:56;36.58;;;19.02;;
40959;SDS011;27842;52.272;8.052;2023-10-09T07:24:27;38.47;;;20.13;;
40959;SDS011;27842;52.272;8.052;2023-10-09T07:27:12;38.60;;;19.33;;
40959;SDS011;27842;52.272;8.052;2023-10-09T07:29:41;35.40;;;19.77;;
40959;SDS011;27842;52.272;8.052;2023-10-09T07:32:15;34.83;;;20.05;;
40959;SDS011;27842;52.272;8.052;2023-10-09T07:34:49;37.70;;;21.70;;
40959;SDS011;27842;52.272;8.052;2023-10-09T07:37:18;38.30;;;20.95;;
40959;SDS011;27842;52.272;8.052;2023-10-09T07:39:47;34.15;;;20.23;;
40959;SDS011;27842;52.272;8.052;2023-10-09T07:42:25;37.03;;;20.27;;
40959;SDS011;27842;52.272;8.052;2023-10-09T07:44:58;36.65;;;20.77;;
40959;SDS011;27842;52.272;8.052;2023-10-09T07:47:40;37.83;;;20.73;;
40959;SDS011;27842;52.272;8.052;2023-10-09T07:50:26;35.42;;;19.98;;
40959;SDS011;27842;52.272;8.052;2023-10-09T07:53:08;35.67;;;19.52;;
40959;SDS011;27842;52.272;8.052;2023-10-09T07:55:44;35.30;;;20.97;;
40959;SDS011;27842;52.272;8.052;2023-10-09T07:58:20;33.90;;;19.90;;
40959;SDS011;27842;52.272;8.052;2023-10-09T08:00:56;33.70;;;19.77;;
40959;SDS011;27842;52.272;8.052;2023-10-09T08:03:35;38.95;;;21.25;;
40959;SDS011;27842;52.272;8.052;2023-10-09T08:06:01;37.00;;;21.20;;
40959;SDS011;27842;52.272;8.052;2023-10-09T08:08:46;38.90;;;21.45;;
40959;SDS011;27842;52.272;8.052;2023-10-09T08:11:34;34.35;;;21.48;;
40959;SDS011;27842;52.272;8.052;2023-10-09T08:14:20;37.80;;;22.48;;
40959;SDS011;27842;52.272;8.052;2023-10-09T08:17:00;37.10;;;23.10;;
40959;SDS011;27842;52.272;8.052;2023-10-09T08:19:49;36.63;;;21.88;;
40959;SDS011;27842;52.272;8.052;2023-10-09T08:22:36;37.20;;;21.13;;
40959;SDS011;27842;52.272;8.052;2023-10-09T08:25:08;35.78;;;20.98;;
40959;SDS011;27842;52.272;8.052;2023-10-09T08:27:51;34.33;;;21.50;;
40959;SDS011;27842;52.272;8.052;2023-10-09T08:30:20;36.67;;;22.08;;
40959;SDS011;27842;52.272;8.052;2023-10-09T08:32:47;40.97;;;21.35;;
40959;SDS011;27842;52.272;8.052;2023-10-09T08:35:32;32.45;;;20.58;;
40959;SDS011;27842;52.272;8.052;2023-10-09T08:38:02;37.47;;;21.83;;
40959;SDS011;27842;52.272;8.052;2023-10-09T08:40:34;34.38;;;21.02;;
40959;SDS011;27842;52.272;8.052;2023-10-09T08:43:10;36.17;;;21.25;;
40959;SDS011;27842;52.272;8.052;2023-10-09T08:45:49;35.33;;;21.90;;
40959;SDS011;27842;52.272;8.052;2023-10-09T08:48:19;36.00;;;21.67;;
40959;SDS011;27842;52.272;8.052;2023-10-09T08:50:51;40.33;;;22.27;;
40959;SDS011;27842;52.272;8.052;2023-10-09T08:53:20;39.25;;;21.40;;
40959;SDS011;27842;52.272;8.052;2023-10-09T08:55:46;38.55;;;21.88;;
40959;SDS011;27842;52.272;8.052;2023-10-09T08:58:13;37.58;;;22.38;;
40959;SDS011;27842;52.272;8.052;2023-10-09T09:00:49;37.75;;;22.27;;
40959;SDS011;27842;52.272;8.052;2023-10-09T09:03:16;37.50;;;21.77;;
40959;SDS011;27842;52.272;8.052;2023-10-09T09:05:47;38.90;;;23.20;;
40959;SDS011;27842;52.272;8.052;2023-10-09T09:08:22;36.05;;;22.95;;
40959;SDS011;27842;52.272;8.052;2023-10-09T09:10:56;39.25;;;22.98;;
40959;SDS011;27842;52.272;8.052;2023-10-09T09:13:46;37.53;;;23.05;;
40959;SDS011;27842;52.272;8.052;2023-10-09T09:16:20;38.80;;;23.25;;
40959;SDS011;27842;52.272;8.052;2023-10-09T09:19:02;38.33;;;22.52;;
40959;SDS011;27842;52.272;8.052;2023-10-09T09:21:37;34.58;;;21.75;;
40959;SDS011;27842;52.272;8.052;2023-10-09T09:27:47;36.17;;;21.60;;
40959;SDS011;27842;52.272;8.052;2023-10-09T09:30:27;39.22;;;23.08;;
40959;SDS011;27842;52.272;8.052;2023-10-09T09:32:58;36.72;;;22.23;;
40959;SDS011;27842;52.272;8.052;2023-10-09T09:35:57;35.55;;;22.23;;
40959;SDS011;27842;52.272;8.052;2023-10-09T09:38:28;37.60;;;22.27;;
40959;SDS011;27842;52.272;8.052;2023-10-09T09:43:33;37.90;;;22.92;;
40959;SDS011;27842;52.272;8.052;2023-10-09T09:46:01;36.75;;;22.58;;
40959;SDS011;27842;52.272;8.052;2023-10-09T09:48:36;37.90;;;21.70;;
40959;SDS011;27842;52.272;8.052;2023-10-09T09:51:14;38.33;;;23.50;;
40959;SDS011;27842;52.272;8.052;2023-10-09T09:53:44;36.25;;;22.70;;
40959;SDS011;27842;52.272;8.052;2023-10-09T09:56:14;36.63;;;22.73;;
40959;SDS011;27842;52.272;8.052;2023-10-09T09:58:43;36.40;;;22.15;;
40959;SDS011;27842;52.272;8.052;2023-10-09T10:01:18;37.88;;;23.25;;
40959;SDS011;27842;52.272;8.052;2023-10-09T10:04:05;41.03;;;23.02;;
40959;SDS011;27842;52.272;8.052;2023-10-09T10:06:45;38.42;;;23.42;;
40959;SDS011;27842;52.272;8.052;2023-10-09T10:09:33;38.55;;;22.98;;
40959;SDS011;27842;52.272;8.052;2023-10-09T10:12:07;35.03;;;23.02;;
40959;SDS011;27842;52.272;8.052;2023-10-09T10:17:22;39.78;;;23.95;;
40959;SDS011;27842;52.272;8.052;2023-10-09T10:22:29;37.95;;;23.10;;
40959;SDS011;27842;52.272;8.052;2023-10-09T10:24:56;36.22;;;22.83;;
40959;SDS011;27842;52.272;8.052;2023-10-09T10:27:34;36.88;;;23.02;;
40959;SDS011;27842;52.272;8.052;2023-10-09T10:32:57;38.05;;;23.15;;
40959;SDS011;27842;52.272;8.052;2023-10-09T10:35:41;36.03;;;23.27;;
40959;SDS011;27842;52.272;8.052;2023-10-09T10:41:07;39.60;;;22.88;;
40959;SDS011;27842;52.272;8.052;2023-10-09T10:46:15;40.05;;;23.92;;
40959;SDS011;27842;52.272;8.052;2023-10-09T10:48:59;40.97;;;24.75;;
40959;SDS011;27842;52.272;8.052;2023-10-09T10:51:39;39.42;;;25.52;;
40959;SDS011;27842;52.272;8.052;2023-10-09T10:54:06;43.85;;;24.35;;
40959;SDS011;27842;52.272;8.052;2023-10-09T10:56:51;37.63;;;24.02;;
40959;SDS011;27842;52.272;8.052;2023-10-09T10:59:17;40.25;;;23.17;;
40959;SDS011;27842;52.272;8.052;2023-10-09T11:01:51;38.45;;;23.67;;
40959;SDS011;27842;52.272;8.052;2023-10-09T11:04:27;35.15;;;22.65;;
40959;SDS011;27842;52.272;8.052;2023-10-09T11:06:57;38.00;;;22.88;;
40959;SDS011;27842;52.272;8.052;2023-10-09T11:12:56;39.67;;;24.00;;
40959;SDS011;27842;52.272;8.052;2023-10-09T11:15:34;41.00;;;24.63;;
40959;SDS011;27842;52.272;8.052;2023-10-09T11:18:21;35.58;;;25.48;;
40959;SDS011;27842;52.272;8.052;2023-10-09T11:20:57;37.97;;;24.63;;
40959;SDS011;27842;52.272;8.052;2023-10-09T11:23:29;38.08;;;24.85;;
40959;SDS011;27842;52.272;8.052;2023-10-09T11:25:58;36.13;;;24.48;;
40959;SDS011;27842;52.272;8.052;2023-10-09T11:29:06;39.63;;;24.05;;
40959;SDS011;27842;52.272;8.052;2023-10-09T11:31:42;35.47;;;23.92;;
40959;SDS011;27842;52.272;8.052;2023-10-09T11:34:24;34.95;;;24.05;;
40959;SDS011;27842;52.272;8.052;2023-10-09T11:37:03;36.55;;;23.30;;
40959;SDS011;27842;52.272;8.052;2023-10-09T11:39:40;35.88;;;23.85;;
40959;SDS011;27842;52.272;8.052;2023-10-09T11:42:17;37.78;;;22.92;;
40959;SDS011;27842;52.272;8.052;2023-10-09T11:45:02;38.92;;;23.58;;
40959;SDS011;27842;52.272;8.052;2023-10-09T11:47:54;36.03;;;23.15;;
40959;SDS011;27842;52.272;8.052;2023-10-09T11:50:40;36.50;;;24.15;;
40959;SDS011;27842;52.272;8.052;2023-10-09T11:53:08;36.25;;;24.50;;
40959;SDS011;27842;52.272;8.052;2023-10-09T11:55:55;38.75;;;25.08;;
40959;SDS011;27842;52.272;8.052;2023-10-09T11:58:21;37.90;;;24.67;;
40959;SDS011;27842;52.272;8.052;2023-10-09T12:00:51;34.95;;;24.83;;
40959;SDS011;27842;52.272;8.052;2023-10-09T12:03:21;39.92;;;24.58;;
40959;SDS011;27842;52.272;8.052;2023-10-09T12:05:56;38.67;;;24.60;;
40959;SDS011;27842;52.272;8.052;2023-10-09T12:08:30;36.60;;;24.67;;
40959;SDS011;27842;52.272;8.052;2023-10-09T12:10:57;37.17;;;24.45;;
40959;SDS011;27842;52.272;8.052;2023-10-09T12:13:23;40.75;;;25.40;;
40959;SDS011;27842;52.272;8.052;2023-10-09T12:15:51;38.35;;;24.23;;
40959;SDS011;27842;52.272;8.052;2023-10-09T12:18:19;41.65;;;23.98;;
40959;SDS011;27842;52.272;8.052;2023-10-09T12:20:45;39.88;;;23.85;;
40959;SDS011;27842;52.272;8.052;2023-10-09T12:23:18;34.75;;;22.60;;
40959;SDS011;27842;52.272;8.052;2023-10-09T12:25:45;37.08;;;22.23;;
40959;SDS011;27842;52.272;8.052;2023-10-09T12:28:13;33.45;;;22.00;;
40959;SDS011;27842;52.272;8.052;2023-10-09T12:30:39;33.05;;;22.17;;
40959;SDS011;27842;52.272;8.052;2023-10-09T12:33:05;34.22;;;21.92;;
40959;SDS011;27842;52.272;8.052;2023-10-09T12:35:36;35.92;;;22.17;;
40959;SDS011;27842;52.272;8.052;2023-10-09T12:38:59;36.25;;;22.80;;
40959;SDS011;27842;52.272;8.052;2023-10-09T12:41:28;37.63;;;24.13;;
40959;SDS011;27842;52.272;8.052;2023-10-09T12:55:17;31.77;;;20.55;;
40959;SDS011;27842;52.272;8.052;2023-10-09T12:57:44;31.85;;;20.55;;
40959;SDS011;27842;52.272;8.052;2023-10-09T13:00:13;32.10;;;18.30;;
40959;SDS011;27842;52.272;8.052;2023-10-09T13:02:50;33.75;;;19.02;;
40959;SDS011;27842;52.272;8.052;2023-10-09T13:05:16;30.95;;;19.08;;
40959;SDS011;27842;52.272;8.052;2023-10-09T13:07:51;33.65;;;20.33;;
40959;SDS011;27842;52.272;8.052;2023-10-09T13:10:18;38.78;;;20.77;;
40959;SDS011;27842;52.272;8.052;2023-10-09T13:12:48;37.40;;;20.70;;
40959;SDS011;27842;52.272;8.052;2023-10-09T13:15:20;30.35;;;19.58;;
40959;SDS011;27842;52.272;8.052;2023-10-09T13:17:46;32.03;;;18.58;;
40959;SDS011;27842;52.272;8.052;2023-10-09T13:20:12;29.13;;;17.42;;
40959;SDS011;27842;52.272;8.052;2023-10-09T13:22:38;30.10;;;16.70;;
40959;SDS011;27842;52.272;8.052;2023-10-09T13:25:06;29.58;;;17.35;;
40959;SDS011;27842;52.272;8.052;2023-10-09T13:27:39;37.95;;;18.38;;
40959;SDS011;27842;52.272;8.052;2023-10-09T13:30:05;34.30;;;17.80;;
40959;SDS011;27842;52.272;8.052;2023-10-09T13:32:33;29.73;;;16.88;;
40959;SDS011;27842;52.272;8.052;2023-10-09T13:35:00;30.70;;;15.43;;
40959;SDS011;27842;52.272;8.052;2023-10-09T13:37:28;29.23;;;13.98;;
40959;SDS011;27842;52.272;8.052;2023-10-09T13:39:56;28.80;;;14.52;;
40959;SDS011;27842;52.272;8.052;2023-10-09T13:42:22;28.33;;;13.82;;
40959;SDS011;27842;52.272;8.052;2023-10-09T13:44:51;24.60;;;12.57;;
40959;SDS011;27842;52.272;8.052;2023-10-09T13:47:19;26.73;;;12.15;;
40959;SDS011;27842;52.272;8.052;2023-10-09T13:49:45;21.98;;;11.32;;
40959;SDS011;27842;52.272;8.052;2023-10-09T13:52:16;20.85;;;10.05;;
40959;SDS011;27842;52.272;8.052;2023-10-09T13:54:46;24.05;;;10.25;;
40959;SDS011;27842;52.272;8.052;2023-10-09T13:57:14;22.55;;;10.77;;
40959;SDS011;27842;52.272;8.052;2023-10-09T13:59:40;22.38;;;9.63;;
40959;SDS011;27842;52.272;8.052;2023-10-09T14:02:16;19.58;;;8.00;;
40959;SDS011;27842;52.272;8.052;2023-10-09T14:04:46;21.25;;;8.88;;
40959;SDS011;27842;52.272;8.052;2023-10-09T14:07:12;21.88;;;8.07;;
40959;SDS011;27842;52.272;8.052;2023-10-09T14:09:41;21.35;;;8.60;;
40959;SDS011;27842;52.272;8.052;2023-10-09T14:12:20;19.15;;;8.50;;
40959;SDS011;27842;52.272;8.052;2023-10-09T14:14:47;18.27;;;7.70;;
40959;SDS011;27842;52.272;8.052;2023-10-09T14:17:13;23.80;;;8.23;;
40959;SDS011;27842;52.272;8.052;2023-10-09T14:19:44;18.95;;;8.00;;
40959;SDS011;27842;52.272;8.052;2023-10-09T14:22:16;22.52;;;8.75;;
40959;SDS011;27842;52.272;8.052;2023-10-09T14:24:43;19.83;;;8.88;;
40959;SDS011;27842;52.272;8.052;2023-10-09T14:27:13;25.00;;;9.05;;
40959;SDS011;27842;52.272;8.052;2023-10-09T14:29:46;22.25;;;8.98;;
40959;SDS011;27842;52.272;8.052;2023-10-09T14:32:12;21.90;;;9.20;;
40959;SDS011;27842;52.272;8.052;2023-10-09T14:34:38;23.13;;;9.38;;
40959;SDS011;27842;52.272;8.052;2023-10-09T14:37:11;25.13;;;10.15;;
40959;SDS011;27842;52.272;8.052;2023-10-09T14:39:38;22.33;;;9.23;;
40959;SDS011;27842;52.272;8.052;2023-10-09T14:42:04;23.35;;;9.35;;
40959;SDS011;27842;52.272;8.052;2023-10-09T14:44:36;22.95;;;9.50;;
40959;SDS011;27842;52.272;8.052;2023-10-09T14:49:42;23.65;;;9.35;;
40959;SDS011;27842;52.272;8.052;2023-10-09T14:52:18;23.17;;;9.52;;
40959;SDS011;27842;52.272;8.052;2023-10-09T14:54:45;26.65;;;12.70;;
40959;SDS011;27842;52.272;8.052;2023-10-09T14:57:12;27.75;;;13.15;;
40959;SDS011;27842;52.272;8.052;2023-10-09T14:59:38;32.67;;;18.58;;
40959;SDS011;27842;52.272;8.052;2023-10-09T15:02:04;27.48;;;14.20;;
40959;SDS011;27842;52.272;8.052;2023-10-09T15:04:31;27.42;;;10.88;;
40959;SDS011;27842;52.272;8.052;2023-10-09T15:07:00;20.35;;;9.25;;
40959;SDS011;27842;52.272;8.052;2023-10-09T15:09:26;24.45;;;9.27;;
40959;SDS011;27842;52.272;8.052;2023-10-09T15:11:56;21.55;;;8.73;;
40959;SDS011;27842;52.272;8.052;2023-10-09T15:14:21;22.42;;;9.02;;
40959;SDS011;27842;52.272;8.052;2023-10-09T15:16:51;22.08;;;8.82;;
40959;SDS011;27842;52.272;8.052;2023-10-09T15:19:17;22.88;;;8.88;;
40959;SDS011;27842;52.272;8.052;2023-10-09T15:21:44;22.90;;;9.13;;
40959;SDS011;27842;52.272;8.052;2023-10-09T15:24:11;19.70;;;7.80;;
40959;SDS011;27842;52.272;8.052;2023-10-09T15:26:44;20.27;;;7.60;;
40959;SDS011;27842;52.272;8.052;2023-10-09T15:29:23;18.70;;;7.60;;
40959;SDS011;27842;52.272;8.052;2023-10-09T15:31:58;19.98;;;7.88;;
40959;SDS011;27842;52.272;8.052;2023-10-09T15:34:38;22.77;;;8.98;;
40959;SDS011;27842;52.272;8.052;2023-10-09T15:37:07;21.17;;;7.57;;
40959;SDS011;27842;52.272;8.052;2023-10-09T15:39:35;22.80;;;8.10;;
40959;SDS011;27842;52.272;8.052;2023-10-09T15:42:03;22.95;;;7.80;;
40959;SDS011;27842;52.272;8.052;2023-10-09T15:44:34;19.40;;;7.93;;
40959;SDS011;27842;52.272;8.052;2023-10-09T15:47:03;24.42;;;7.85;;
40959;SDS011;27842;52.272;8.052;2023-10-09T15:49:33;19.00;;;7.30;;
40959;SDS011;27842;52.272;8.052;2023-10-09T15:51:59;22.48;;;7.50;;
40959;SDS011;27842;52.272;8.052;2023-10-09T15:54:28;21.55;;;7.88;;
40959;SDS011;27842;52.272;8.052;2023-10-09T15:56:54;23.20;;;7.43;;
40959;SDS011;27842;52.272;8.052;2023-10-09T15:59:39;19.35;;;7.95;;
40959;SDS011;27842;52.272;8.052;2023-10-09T16:02:12;18.73;;;7.75;;
40959;SDS011;27842;52.272;8.052;2023-10-09T16:04:38;20.83;;;7.82;;